sensor_id;sensor_type;location;lat;lon;timestamp;pressure;altitude;pressure_sealevel;temperature;humidity
63808;BME280;49961;43.970;22.868;2024-01-30T00:00:37;104043.06;;;3.43;100.00
63808;BME280;49961;43.970;22.868;2024-01-30T00:01:37;104048.47;;;3.48;100.00
63808;BME280;49961;43.970;22.868;2024-01-30T00:02:37;104046.34;;;3.45;100.00
63808;BME280;49961;43.970;22.868;2024-01-30T00:03:38;104046.63;;;3.43;100.00
63808;BME280;49961;43.970;22.868;2024-01-30T00:04:38;104047.06;;;3.50;100.00
63808;BME280;49961;43.970;22.868;2024-01-30T00:05:39;104048.00;;;3.59;100.00
63808;BME280;49961;43.970;22.868;2024-01-30T00:06:40;104050.44;;;3.61;100.00
63808;BME280;49961;43.970;22.868;2024-01-30T00:07:40;104019.88;;;3.54;100.00
63808;BME280;49961;43.970;22.868;2024-01-30T00:08:41;104030.63;;;3.64;100.00
63808;BME280;49961;43.970;22.868;2024-01-30T00:09:41;104055.63;;;3.76;100.00
63808;BME280;49961;43.970;22.868;2024-01-30T00:10:42;104046.81;;;3.79;100.00
63808;BME280;49961;43.970;22.868;2024-01-30T00:11:42;104048.72;;;3.78;100.00
63808;BME280;49961;43.970;22.868;2024-01-30T00:12:43;104050.88;;;3.81;100.00
63808;BME280;49961;43.970;22.868;2024-01-30T00:13:43;104046.38;;;3.85;100.00
63808;BME280;49961;43.970;22.868;2024-01-30T00:14:44;103954.00;;;3.27;100.00
63808;BME280;49961;43.970;22.868;2024-01-30T00:15:44;104036.63;;;3.79;100.00
63808;BME280;49961;43.970;22.868;2024-01-30T00:16:45;104052.41;;;3.87;100.00
63808;BME280;49961;43.970;22.868;2024-01-30T00:17:45;104042.41;;;3.91;100.00
63808;BME280;49961;43.970;22.868;2024-01-30T00:18:46;104026.38;;;3.85;100.00
63808;BME280;49961;43.970;22.868;2024-01-30T00:19:46;104027.78;;;3.96;100.00
63808;BME280;49961;43.970;22.868;2024-01-30T00:20:47;104040.59;;;4.00;100.00
63808;BME280;49961;43.970;22.868;2024-01-30T00:21:47;104042.00;;;3.98;100.00
63808;BME280;49961;43.970;22.868;2024-01-30T00:22:48;104037.06;;;4.00;100.00
63808;BME280;49961;43.970;22.868;2024-01-30T00:23:50;103840.47;;;2.74;100.00
63808;BME280;49961;43.970;22.868;2024-01-30T00:24:50;104038.47;;;3.97;100.00
63808;BME280;49961;43.970;22.868;2024-01-30T00:25:51;104051.28;;;4.02;100.00
63808;BME280;49961;43.970;22.868;2024-01-30T00:26:51;104046.06;;;4.00;100.00
63808;BME280;49961;43.970;22.868;2024-01-30T00:27:52;104026.78;;;3.92;100.00
63808;BME280;49961;43.970;22.868;2024-01-30T00:28:53;104039.47;;;4.01;100.00
63808;BME280;49961;43.970;22.868;2024-01-30T00:29:53;104045.47;;;4.03;100.00
63808;BME280;49961;43.970;22.868;2024-01-30T00:30:54;104040.47;;;4.05;100.00
63808;BME280;49961;43.970;22.868;2024-01-30T00:31:54;104043.03;;;4.02;100.00
63808;BME280;49961;43.970;22.868;2024-01-30T00:32:55;104051.66;;;4.09;100.00
63808;BME280;49961;43.970;22.868;2024-01-30T00:33:55;103966.44;;;3.51;100.00
63808;BME280;49961;43.970;22.868;2024-01-30T00:34:56;104043.94;;;4.11;100.00
63808;BME280;49961;43.970;22.868;2024-01-30T00:35:56;104040.28;;;4.15;100.00
63808;BME280;49961;43.970;22.868;2024-01-30T00:36:57;104041.00;;;4.21;100.00
63808;BME280;49961;43.970;22.868;2024-01-30T00:37:57;104041.00;;;4.21;100.00
63808;BME280;49961;43.970;22.868;2024-01-30T00:38:58;104036.81;;;4.23;100.00
63808;BME280;49961;43.970;22.868;2024-01-30T00:39:58;104033.16;;;4.14;100.00
63808;BME280;49961;43.970;22.868;2024-01-30T00:40:59;104041.59;;;4.18;100.00
63808;BME280;49961;43.970;22.868;2024-01-30T00:41:59;104039.69;;;4.18;100.00
63808;BME280;49961;43.970;22.868;2024-01-30T00:42:59;104047.38;;;4.16;100.00
63808;BME280;49961;43.970;22.868;2024-01-30T00:44:00;104025.22;;;4.13;100.00
63808;BME280;49961;43.970;22.868;2024-01-30T00:45:01;104038.84;;;4.18;100.00
63808;BME280;49961;43.970;22.868;2024-01-30T00:46:01;104011.63;;;3.94;100.00
63808;BME280;49961;43.970;22.868;2024-01-30T00:47:02;104041.69;;;4.13;100.00
63808;BME280;49961;43.970;22.868;2024-01-30T00:48:03;104045.28;;;4.13;100.00
63808;BME280;49961;43.970;22.868;2024-01-30T00:49:04;104038.47;;;4.11;100.00
63808;BME280;49961;43.970;22.868;2024-01-30T00:50:05;104021.28;;;4.05;100.00
63808;BME280;49961;43.970;22.868;2024-01-30T00:51:05;104036.41;;;4.03;100.00
63808;BME280;49961;43.970;22.868;2024-01-30T00:52:06;104039.47;;;4.01;100.00
63808;BME280;49961;43.970;22.868;2024-01-30T00:53:07;104035.41;;;3.99;100.00
63808;BME280;49961;43.970;22.868;2024-01-30T00:54:07;104040.19;;;3.93;100.00
63808;BME280;49961;43.970;22.868;2024-01-30T00:55:08;103885.25;;;2.96;100.00
63808;BME280;49961;43.970;22.868;2024-01-30T00:56:08;104031.97;;;3.80;100.00
63808;BME280;49961;43.970;22.868;2024-01-30T00:57:09;104063.75;;;3.81;100.00
63808;BME280;49961;43.970;22.868;2024-01-30T00:58:09;104042.22;;;3.74;100.00
63808;BME280;49961;43.970;22.868;2024-01-30T00:59:11;104040.41;;;3.70;100.00
63808;BME280;49961;43.970;22.868;2024-01-30T01:00:12;104039.88;;;3.68;100.00
63808;BME280;49961;43.970;22.868;2024-01-30T01:01:13;103913.84;;;2.77;100.00
63808;BME280;49961;43.970;22.868;2024-01-30T01:02:14;104043.91;;;3.57;100.00
63808;BME280;49961;43.970;22.868;2024-01-30T01:03:17;104045.53;;;3.58;100.00
63808;BME280;49961;43.970;22.868;2024-01-30T01:04:17;104043.13;;;3.56;100.00
63808;BME280;49961;43.970;22.868;2024-01-30T01:05:18;104034.91;;;3.56;100.00
63808;BME280;49961;43.970;22.868;2024-01-30T01:06:19;104031.63;;;3.54;100.00
63808;BME280;49961;43.970;22.868;2024-01-30T01:07:20;104047.78;;;3.56;100.00
63808;BME280;49961;43.970;22.868;2024-01-30T01:08:20;104037.41;;;3.53;100.00
63808;BME280;49961;43.970;22.868;2024-01-30T01:09:20;104034.16;;;3.51;100.00
63808;BME280;49961;43.970;22.868;2024-01-30T01:10:21;104034.47;;;3.49;100.00
63808;BME280;49961;43.970;22.868;2024-01-30T01:11:22;104031.81;;;3.44;100.00
63808;BME280;49961;43.970;22.868;2024-01-30T01:12:23;104029.97;;;3.40;100.00
63808;BME280;49961;43.970;22.868;2024-01-30T01:13:24;104019.50;;;3.28;100.00
63808;BME280;49961;43.970;22.868;2024-01-30T01:14:24;103912.69;;;2.64;100.00
63808;BME280;49961;43.970;22.868;2024-01-30T01:15:25;104031.59;;;3.41;100.00
63808;BME280;49961;43.970;22.868;2024-01-30T01:16:26;104029.97;;;3.40;100.00
63808;BME280;49961;43.970;22.868;2024-01-30T01:17:26;104038.22;;;3.40;100.00
63808;BME280;49961;43.970;22.868;2024-01-30T01:18:27;104033.03;;;3.38;100.00
63808;BME280;49961;43.970;22.868;2024-01-30T01:19:27;104043.41;;;3.41;100.00
63808;BME280;49961;43.970;22.868;2024-01-30T01:20:28;104036.28;;;3.40;100.00
63808;BME280;49961;43.970;22.868;2024-01-30T01:21:28;104037.72;;;3.38;100.00
63808;BME280;49961;43.970;22.868;2024-01-30T01:22:29;104057.19;;;3.36;100.00
63808;BME280;49961;43.970;22.868;2024-01-30T01:23:48;103874.94;;;2.29;100.00
63808;BME280;49961;43.970;22.868;2024-01-30T01:24:49;104037.56;;;3.29;100.00
63808;BME280;49961;43.970;22.868;2024-01-30T01:25:49;104035.16;;;3.28;100.00
63808;BME280;49961;43.970;22.868;2024-01-30T01:26:50;104031.09;;;3.25;100.00
63808;BME280;49961;43.970;22.868;2024-01-30T01:27:50;104037.97;;;3.23;100.00
63808;BME280;49961;43.970;22.868;2024-01-30T01:28:53;104040.19;;;3.21;100.00
63808;BME280;49961;43.970;22.868;2024-01-30T01:29:54;104037.97;;;3.23;100.00
63808;BME280;49961;43.970;22.868;2024-01-30T01:30:54;104036.84;;;3.24;100.00
63808;BME280;49961;43.970;22.868;2024-01-30T01:31:59;104002.44;;;2.99;100.00
63808;BME280;49961;43.970;22.868;2024-01-30T01:32:59;103927.47;;;2.63;100.00
63808;BME280;49961;43.970;22.868;2024-01-30T01:34:02;104028.34;;;3.25;100.00
63808;BME280;49961;43.970;22.868;2024-01-30T01:35:03;103985.31;;;2.94;100.00
63808;BME280;49961;43.970;22.868;2024-01-30T01:36:05;104029.59;;;3.14;100.00
63808;BME280;49961;43.970;22.868;2024-01-30T01:37:06;104022.88;;;3.07;100.00
63808;BME280;49961;43.970;22.868;2024-01-30T01:38:07;104037.25;;;3.17;100.00
63808;BME280;49961;43.970;22.868;2024-01-30T01:39:08;104032.59;;;3.18;100.00
63808;BME280;49961;43.970;22.868;2024-01-30T01:40:09;104013.41;;;2.99;100.00
63808;BME280;49961;43.970;22.868;2024-01-30T01:41:09;104038.75;;;3.10;100.00
63808;BME280;49961;43.970;22.868;2024-01-30T01:42:10;104007.00;;;2.90;100.00
63808;BME280;49961;43.970;22.868;2024-01-30T01:43:10;104033.03;;;3.06;100.00
63808;BME280;49961;43.970;22.868;2024-01-30T01:44:11;104034.16;;;3.05;100.00
63808;BME280;49961;43.970;22.868;2024-01-30T01:45:11;104034.25;;;3.00;100.00
63808;BME280;49961;43.970;22.868;2024-01-30T01:46:12;104037.28;;;2.99;100.00
63808;BME280;49961;43.970;22.868;2024-01-30T01:47:12;103945.88;;;2.44;100.00
63808;BME280;49961;43.970;22.868;2024-01-30T01:48:13;104033.41;;;3.00;100.00
63808;BME280;49961;43.970;22.868;2024-01-30T01:49:14;104037.28;;;2.99;100.00
63808;BME280;49961;43.970;22.868;2024-01-30T01:50:16;104033.41;;;3.00;100.00
63808;BME280;49961;43.970;22.868;2024-01-30T01:51:18;103937.28;;;2.32;100.00
63808;BME280;49961;43.970;22.868;2024-01-30T01:52:20;104037.00;;;3.00;100.00
63808;BME280;49961;43.970;22.868;2024-01-30T01:53:20;104029.97;;;2.94;100.00
63808;BME280;49961;43.970;22.868;2024-01-30T01:54:21;104039.34;;;2.88;100.00
63808;BME280;49961;43.970;22.868;2024-01-30T01:55:22;104034.50;;;2.85;100.00
63808;BME280;49961;43.970;22.868;2024-01-30T01:56:25;103943.22;;;2.21;100.00
63808;BME280;49961;43.970;22.868;2024-01-30T01:57:27;104032.34;;;2.82;100.00
63808;BME280;49961;43.970;22.868;2024-01-30T01:58:27;104040.19;;;2.89;100.00
63808;BME280;49961;43.970;22.868;2024-01-30T01:59:29;104029.81;;;2.86;100.00
63808;BME280;49961;43.970;22.868;2024-01-30T02:00:30;103973.88;;;2.55;100.00
63808;BME280;49961;43.970;22.868;2024-01-30T02:01:32;104038.69;;;2.96;100.00
63808;BME280;49961;43.970;22.868;2024-01-30T02:02:35;104030.88;;;3.03;100.00
63808;BME280;49961;43.970;22.868;2024-01-30T02:03:36;104039.66;;;3.05;100.00
63808;BME280;49961;43.970;22.868;2024-01-30T02:04:38;104039.72;;;3.00;100.00
63808;BME280;49961;43.970;22.868;2024-01-30T02:05:39;103943.00;;;2.36;100.00
63808;BME280;49961;43.970;22.868;2024-01-30T02:06:42;104035.88;;;3.01;100.00
63808;BME280;49961;43.970;22.868;2024-01-30T02:07:43;104037.28;;;2.99;100.00
63808;BME280;49961;43.970;22.868;2024-01-30T02:08:44;104033.13;;;3.01;100.00
63808;BME280;49961;43.970;22.868;2024-01-30T02:09:44;104035.03;;;3.01;100.00
63808;BME280;49961;43.970;22.868;2024-01-30T02:10:45;104027.13;;;2.99;100.00
63808;BME280;49961;43.970;22.868;2024-01-30T02:11:46;104036.66;;;3.02;100.00
63808;BME280;49961;43.970;22.868;2024-01-30T02:12:46;104029.84;;;2.99;100.00
63808;BME280;49961;43.970;22.868;2024-01-30T02:13:47;104025.69;;;3.02;100.00
63808;BME280;49961;43.970;22.868;2024-01-30T02:14:48;104032.50;;;3.04;100.00
63808;BME280;49961;43.970;22.868;2024-01-30T02:15:50;103908.66;;;2.25;100.00
63808;BME280;49961;43.970;22.868;2024-01-30T02:16:50;104035.88;;;3.01;100.00
63808;BME280;49961;43.970;22.868;2024-01-30T02:17:51;104030.97;;;2.98;100.00
63808;BME280;49961;43.970;22.868;2024-01-30T02:18:51;104025.00;;;2.96;100.00
63808;BME280;49961;43.970;22.868;2024-01-30T02:19:52;104026.63;;;2.97;100.00
63808;BME280;49961;43.970;22.868;2024-01-30T02:20:54;104024.56;;;2.89;100.00
63808;BME280;49961;43.970;22.868;2024-01-30T02:21:56;104008.22;;;2.84;100.00
63808;BME280;49961;43.970;22.868;2024-01-30T02:22:58;104018.84;;;2.86;100.00
63808;BME280;49961;43.970;22.868;2024-01-30T02:24:02;104030.47;;;2.96;100.00
63808;BME280;49961;43.970;22.868;2024-01-30T02:25:03;104024.09;;;3.01;100.00
63808;BME280;49961;43.970;22.868;2024-01-30T02:26:04;104027.66;;;3.01;100.00
63808;BME280;49961;43.970;22.868;2024-01-30T02:27:04;104022.38;;;3.05;100.00
63808;BME280;49961;43.970;22.868;2024-01-30T02:28:05;104023.88;;;2.97;100.00
63808;BME280;49961;43.970;22.868;2024-01-30T02:29:05;104029.84;;;2.99;100.00
63808;BME280;49961;43.970;22.868;2024-01-30T02:30:06;104020.19;;;2.88;100.00
63808;BME280;49961;43.970;22.868;2024-01-30T02:31:07;104023.56;;;2.99;100.00
63808;BME280;49961;43.970;22.868;2024-01-30T02:32:07;104034.53;;;2.99;100.00
63808;BME280;49961;43.970;22.868;2024-01-30T02:33:08;104020.72;;;2.90;100.00
63808;BME280;49961;43.970;22.868;2024-01-30T02:34:09;104029.66;;;2.96;100.00
63808;BME280;49961;43.970;22.868;2024-01-30T02:35:09;104028.94;;;2.90;100.00
63808;BME280;49961;43.970;22.868;2024-01-30T02:36:10;104029.13;;;2.94;100.00
63808;BME280;49961;43.970;22.868;2024-01-30T02:37:10;104025.66;;;2.88;100.00
63808;BME280;49961;43.970;22.868;2024-01-30T02:38:11;104027.81;;;2.91;100.00
63808;BME280;49961;43.970;22.868;2024-01-30T02:39:11;103907.19;;;2.14;100.00
63808;BME280;49961;43.970;22.868;2024-01-30T02:40:12;104039.06;;;2.90;100.00
63808;BME280;49961;43.970;22.868;2024-01-30T02:41:12;103910.25;;;2.12;100.00
63808;BME280;49961;43.970;22.868;2024-01-30T02:42:13;104034.19;;;2.87;100.00
63808;BME280;49961;43.970;22.868;2024-01-30T02:43:13;104032.03;;;2.84;100.00
63808;BME280;49961;43.970;22.868;2024-01-30T02:44:14;104032.53;;;2.86;100.00
63808;BME280;49961;43.970;22.868;2024-01-30T02:45:14;104033.66;;;2.85;100.00
63808;BME280;49961;43.970;22.868;2024-01-30T02:46:15;104035.06;;;2.82;100.00
63808;BME280;49961;43.970;22.868;2024-01-30T02:47:15;104029.47;;;2.74;100.00
63808;BME280;49961;43.970;22.868;2024-01-30T02:48:16;104019.41;;;2.69;100.00
63808;BME280;49961;43.970;22.868;2024-01-30T02:49:17;104027.22;;;2.76;100.00
63808;BME280;49961;43.970;22.868;2024-01-30T02:50:17;104029.75;;;2.72;100.00
63808;BME280;49961;43.970;22.868;2024-01-30T02:51:18;104037.16;;;2.72;100.00
63808;BME280;49961;43.970;22.868;2024-01-30T02:52:19;104033.91;;;2.70;100.00
63808;BME280;49961;43.970;22.868;2024-01-30T02:53:20;104035.38;;;2.62;100.00
63808;BME280;49961;43.970;22.868;2024-01-30T02:54:20;104045.41;;;2.53;100.00
63808;BME280;49961;43.970;22.868;2024-01-30T02:55:21;104042.63;;;2.35;100.00
63808;BME280;49961;43.970;22.868;2024-01-30T02:56:22;104042.88;;;2.15;100.00
63808;BME280;49961;43.970;22.868;2024-01-30T02:57:22;104040.66;;;1.98;100.00
63808;BME280;49961;43.970;22.868;2024-01-30T02:58:23;104035.91;;;2.04;100.00
63808;BME280;49961;43.970;22.868;2024-01-30T02:59:23;104047.28;;;2.16;100.00
63808;BME280;49961;43.970;22.868;2024-01-30T03:00:24;104047.06;;;2.12;100.00
63808;BME280;49961;43.970;22.868;2024-01-30T03:01:24;104051.00;;;2.01;100.00
63808;BME280;49961;43.970;22.868;2024-01-30T03:02:25;104042.78;;;2.01;100.00
63808;BME280;49961;43.970;22.868;2024-01-30T03:03:25;104046.41;;;1.97;100.00
63808;BME280;49961;43.970;22.868;2024-01-30T03:04:26;104034.47;;;1.88;100.00
63808;BME280;49961;43.970;22.868;2024-01-30T03:05:26;104048.03;;;1.98;100.00
63808;BME280;49961;43.970;22.868;2024-01-30T03:06:27;104050.81;;;1.93;100.00
63808;BME280;49961;43.970;22.868;2024-01-30T03:07:27;104027.66;;;1.85;100.00
63808;BME280;49961;43.970;22.868;2024-01-30T03:08:28;104038.53;;;1.90;100.00
63808;BME280;49961;43.970;22.868;2024-01-30T03:09:28;104037.44;;;1.91;100.00
63808;BME280;49961;43.970;22.868;2024-01-30T03:10:29;104037.97;;;1.93;100.00
63808;BME280;49961;43.970;22.868;2024-01-30T03:11:30;104040.66;;;1.98;100.00
63808;BME280;49961;43.970;22.868;2024-01-30T03:12:31;104034.34;;;1.98;100.00
63808;BME280;49961;43.970;22.868;2024-01-30T03:13:31;104031.34;;;1.99;100.00
63808;BME280;49961;43.970;22.868;2024-01-30T03:14:32;104033.19;;;2.04;100.00
63808;BME280;49961;43.970;22.868;2024-01-30T03:15:32;104032.88;;;2.05;100.00
63808;BME280;49961;43.970;22.868;2024-01-30T03:16:33;103985.72;;;1.71;100.00
63808;BME280;49961;43.970;22.868;2024-01-30T03:17:33;103989.16;;;1.82;100.00
63808;BME280;49961;43.970;22.868;2024-01-30T03:18:34;104040.59;;;2.03;100.00
63808;BME280;49961;43.970;22.868;2024-01-30T03:19:34;104031.78;;;2.06;100.00
63808;BME280;49961;43.970;22.868;2024-01-30T03:20:35;104013.50;;;2.02;100.00
63808;BME280;49961;43.970;22.868;2024-01-30T03:21:35;104030.09;;;2.10;100.00
63808;BME280;49961;43.970;22.868;2024-01-30T03:22:36;104034.78;;;2.10;100.00
63808;BME280;49961;43.970;22.868;2024-01-30T03:23:36;104030.09;;;2.10;100.00
63808;BME280;49961;43.970;22.868;2024-01-30T03:24:37;104025.66;;;2.14;100.00
63808;BME280;49961;43.970;22.868;2024-01-30T03:25:37;104028.13;;;2.16;100.00
63808;BME280;49961;43.970;22.868;2024-01-30T03:26:38;104053.81;;;2.15;100.00
63808;BME280;49961;43.970;22.868;2024-01-30T03:27:38;104008.56;;;2.04;100.00
63808;BME280;49961;43.970;22.868;2024-01-30T03:28:39;104029.50;;;2.13;100.00
63808;BME280;49961;43.970;22.868;2024-01-30T03:29:39;104031.78;;;2.06;100.00
63808;BME280;49961;43.970;22.868;2024-01-30T03:30:40;104023.69;;;1.96;100.00
63808;BME280;49961;43.970;22.868;2024-01-30T03:31:40;104027.75;;;1.99;100.00
63808;BME280;49961;43.970;22.868;2024-01-30T03:32:40;103995.25;;;1.74;100.00
63808;BME280;49961;43.970;22.868;2024-01-30T03:33:41;104030.88;;;1.92;100.00
63808;BME280;49961;43.970;22.868;2024-01-30T03:34:42;104006.94;;;1.79;100.00
63808;BME280;49961;43.970;22.868;2024-01-30T03:35:42;104024.00;;;1.95;100.00
63808;BME280;49961;43.970;22.868;2024-01-30T03:36:43;104030.28;;;1.95;100.00
63808;BME280;49961;43.970;22.868;2024-01-30T03:37:43;104028.38;;;1.96;100.00
63808;BME280;49961;43.970;22.868;2024-01-30T03:38:44;104032.38;;;2.03;100.00
63808;BME280;49961;43.970;22.868;2024-01-30T03:39:44;104013.28;;;1.98;100.00
63808;BME280;49961;43.970;22.868;2024-01-30T03:40:45;104028.25;;;2.06;100.00
63808;BME280;49961;43.970;22.868;2024-01-30T03:41:46;104036.97;;;2.08;100.00
63808;BME280;49961;43.970;22.868;2024-01-30T03:42:46;103981.56;;;1.74;100.00
63808;BME280;49961;43.970;22.868;2024-01-30T03:43:47;104031.34;;;1.99;100.00
63808;BME280;49961;43.970;22.868;2024-01-30T03:44:47;104033.25;;;1.99;100.00
63808;BME280;49961;43.970;22.868;2024-01-30T03:45:48;104032.44;;;1.98;100.00
63808;BME280;49961;43.970;22.868;2024-01-30T03:46:48;104043.63;;;1.78;100.00
63808;BME280;49961;43.970;22.868;2024-01-30T03:47:49;104033.28;;;1.94;100.00
63808;BME280;49961;43.970;22.868;2024-01-30T03:48:49;104037.09;;;1.98;100.00
63808;BME280;49961;43.970;22.868;2024-01-30T03:49:50;104038.66;;;2.04;100.00
63808;BME280;49961;43.970;22.868;2024-01-30T03:50:50;104033.72;;;2.06;100.00
63808;BME280;49961;43.970;22.868;2024-01-30T03:51:51;104033.38;;;2.12;100.00
63808;BME280;49961;43.970;22.868;2024-01-30T03:52:51;104029.69;;;2.22;100.00
63808;BME280;49961;43.970;22.868;2024-01-30T03:53:52;104036.19;;;2.26;100.00
63808;BME280;49961;43.970;22.868;2024-01-30T03:54:52;104028.19;;;2.29;100.00
63808;BME280;49961;43.970;22.868;2024-01-30T03:55:53;104034.19;;;2.31;100.00
63808;BME280;49961;43.970;22.868;2024-01-30T03:56:53;104032.06;;;2.28;100.00
63808;BME280;49961;43.970;22.868;2024-01-30T03:57:54;104039.44;;;2.28;100.00
63808;BME280;49961;43.970;22.868;2024-01-30T03:58:54;104030.19;;;2.24;100.00
63808;BME280;49961;43.970;22.868;2024-01-30T03:59:55;103937.97;;;1.64;100.00
63808;BME280;49961;43.970;22.868;2024-01-30T04:00:56;104040.28;;;2.28;100.00
63808;BME280;49961;43.970;22.868;2024-01-30T04:01:57;104033.97;;;2.28;100.00
63808;BME280;49961;43.970;22.868;2024-01-30T04:02:57;104017.16;;;2.16;100.00
63808;BME280;49961;43.970;22.868;2024-01-30T04:03:58;104034.78;;;2.28;100.00
63808;BME280;49961;43.970;22.868;2024-01-30T04:04:58;103906.97;;;1.50;100.00
63808;BME280;49961;43.970;22.868;2024-01-30T04:05:59;104035.53;;;2.34;100.00
63808;BME280;49961;43.970;22.868;2024-01-30T04:06:59;104035.16;;;2.40;100.00
63808;BME280;49961;43.970;22.868;2024-01-30T04:08:00;103969.75;;;2.02;100.00
63808;BME280;49961;43.970;22.868;2024-01-30T04:09:00;104029.03;;;2.48;100.00
63808;BME280;49961;43.970;22.868;2024-01-30T04:10:01;104006.81;;;2.31;100.00
63808;BME280;49961;43.970;22.868;2024-01-30T04:11:05;104031.47;;;2.50;100.00
63808;BME280;49961;43.970;22.868;2024-01-30T04:12:06;103961.75;;;2.05;100.00
63808;BME280;49961;43.970;22.868;2024-01-30T04:13:06;103918.94;;;1.77;100.00
63808;BME280;49961;43.970;22.868;2024-01-30T04:14:08;103898.19;;;1.53;100.00
63808;BME280;49961;43.970;22.868;2024-01-30T04:15:09;104032.84;;;2.29;100.00
63808;BME280;49961;43.970;22.868;2024-01-30T04:16:19;104037.75;;;2.32;100.00
63808;BME280;49961;43.970;22.868;2024-01-30T04:17:20;104031.22;;;2.28;100.00
63808;BME280;49961;43.970;22.868;2024-01-30T04:18:21;104037.47;;;2.33;100.00
63808;BME280;49961;43.970;22.868;2024-01-30T04:19:21;104041.53;;;2.36;100.00
63808;BME280;49961;43.970;22.868;2024-01-30T04:20:22;104028.50;;;2.28;100.00
63808;BME280;49961;43.970;22.868;2024-01-30T04:21:22;104027.16;;;2.25;100.00
63808;BME280;49961;43.970;22.868;2024-01-30T04:22:23;104031.09;;;2.38;100.00
63808;BME280;49961;43.970;22.868;2024-01-30T04:23:23;104026.72;;;2.37;100.00
63808;BME280;49961;43.970;22.868;2024-01-30T04:24:23;104022.94;;;2.33;100.00
63808;BME280;49961;43.970;22.868;2024-01-30T04:25:24;104033.09;;;2.51;100.00
63808;BME280;49961;43.970;22.868;2024-01-30T04:26:24;104027.25;;;2.57;100.00
63808;BME280;49961;43.970;22.868;2024-01-30T04:27:25;104034.25;;;2.63;100.00
63808;BME280;49961;43.970;22.868;2024-01-30T04:28:25;104030.94;;;2.66;100.00
63808;BME280;49961;43.970;22.868;2024-01-30T04:29:26;104034.72;;;2.70;100.00
63808;BME280;49961;43.970;22.868;2024-01-30T04:30:26;104034.44;;;2.72;100.00
63808;BME280;49961;43.970;22.868;2024-01-30T04:31:27;104039.66;;;2.68;100.00
63808;BME280;49961;43.970;22.868;2024-01-30T04:32:27;104033.91;;;2.70;100.00
63808;BME280;49961;43.970;22.868;2024-01-30T04:33:28;104035.16;;;2.59;100.00
63808;BME280;49961;43.970;22.868;2024-01-30T04:34:28;104044.56;;;2.53;100.00
63808;BME280;49961;43.970;22.868;2024-01-30T04:35:29;103970.84;;;2.01;100.00
63808;BME280;49961;43.970;22.868;2024-01-30T04:36:29;103988.75;;;2.12;100.00
63808;BME280;49961;43.970;22.868;2024-01-30T04:37:30;104045.28;;;2.40;100.00
63808;BME280;49961;43.970;22.868;2024-01-30T04:38:31;104066.09;;;2.41;100.00
63808;BME280;49961;43.970;22.868;2024-01-30T04:39:35;104033.75;;;2.43;100.00
63808;BME280;49961;43.970;22.868;2024-01-30T04:40:35;104032.28;;;2.50;100.00
63808;BME280;49961;43.970;22.868;2024-01-30T04:41:36;104036.66;;;2.51;100.00
63808;BME280;49961;43.970;22.868;2024-01-30T04:42:36;104048.94;;;2.54;100.00
63808;BME280;49961;43.970;22.868;2024-01-30T04:43:37;104033.53;;;2.58;100.00
63808;BME280;49961;43.970;22.868;2024-01-30T04:44:38;104033.84;;;2.56;100.00
63808;BME280;49961;43.970;22.868;2024-01-30T04:45:38;104037.69;;;2.55;100.00
63808;BME280;49961;43.970;22.868;2024-01-30T04:46:39;103939.56;;;1.88;100.00
63808;BME280;49961;43.970;22.868;2024-01-30T04:47:40;104014.66;;;2.19;100.00
63808;BME280;49961;43.970;22.868;2024-01-30T04:48:40;104045.69;;;2.33;100.00
63808;BME280;49961;43.970;22.868;2024-01-30T04:49:41;104050.91;;;2.30;100.00
63808;BME280;49961;43.970;22.868;2024-01-30T04:50:42;104044.56;;;2.34;100.00
63808;BME280;49961;43.970;22.868;2024-01-30T04:51:42;104017.03;;;2.26;100.00
63808;BME280;49961;43.970;22.868;2024-01-30T04:52:44;104044.84;;;2.33;100.00
63808;BME280;49961;43.970;22.868;2024-01-30T04:53:45;104040.13;;;2.38;100.00
63808;BME280;49961;43.970;22.868;2024-01-30T04:54:45;103950.34;;;1.80;100.00
63808;BME280;49961;43.970;22.868;2024-01-30T04:55:46;104043.16;;;2.37;100.00
63808;BME280;49961;43.970;22.868;2024-01-30T04:56:46;104040.34;;;2.42;100.00
63808;BME280;49961;43.970;22.868;2024-01-30T04:57:47;104045.81;;;2.42;100.00
63808;BME280;49961;43.970;22.868;2024-01-30T04:58:47;104043.94;;;2.37;100.00
63808;BME280;49961;43.970;22.868;2024-01-30T04:59:48;104044.56;;;2.34;100.00
63808;BME280;49961;43.970;22.868;2024-01-30T05:00:48;103898.63;;;1.41;100.00
63808;BME280;49961;43.970;22.868;2024-01-30T05:01:51;103852.91;;;1.00;100.00
63808;BME280;49961;43.970;22.868;2024-01-30T05:02:52;103904.09;;;1.41;100.00
63808;BME280;49961;43.970;22.868;2024-01-30T05:03:52;104048.75;;;2.27;100.00
63808;BME280;49961;43.970;22.868;2024-01-30T05:04:53;104047.13;;;2.26;100.00
63808;BME280;49961;43.970;22.868;2024-01-30T05:05:53;104005.94;;;1.94;100.00
63808;BME280;49961;43.970;22.868;2024-01-30T05:06:54;104044.63;;;2.29;100.00
63808;BME280;49961;43.970;22.868;2024-01-30T05:07:54;104049.28;;;2.29;100.00
63808;BME280;49961;43.970;22.868;2024-01-30T05:08:55;104046.53;;;2.29;100.00
63808;BME280;49961;43.970;22.868;2024-01-30T05:09:56;104044.84;;;2.33;100.00
63808;BME280;49961;43.970;22.868;2024-01-30T05:10:56;104041.00;;;2.34;100.00
63808;BME280;49961;43.970;22.868;2024-01-30T05:12:00;104029.69;;;2.22;100.00
63808;BME280;49961;43.970;22.868;2024-01-30T05:13:00;104045.13;;;2.31;100.00
63808;BME280;49961;43.970;22.868;2024-01-30T05:14:01;104045.41;;;2.30;100.00